createdAt,value
2022-12-11T00:00:29.556Z,8.20
2022-12-11T00:02:59.201Z,7.40
2022-12-11T00:05:26.940Z,8.08
2022-12-11T00:07:54.326Z,6.53
2022-12-11T00:10:22.162Z,6.37
2022-12-11T00:12:49.729Z,6.60
2022-12-11T00:15:17.879Z,7.20
2022-12-11T00:17:45.356Z,8.40
2022-12-11T00:20:12.992Z,9.43
2022-12-11T00:22:40.439Z,8.70
2022-12-11T00:25:09.417Z,8.58
2022-12-11T00:27:37.282Z,9.53
2022-12-11T00:30:06.652Z,7.25
2022-12-11T00:32:37.557Z,8.45
2022-12-11T00:35:05.229Z,10.68
2022-12-11T00:37:32.946Z,10.85
2022-12-11T00:40:00.702Z,12.05
2022-12-11T00:42:28.522Z,10.55
2022-12-11T00:44:56.334Z,9.15
2022-12-11T00:47:24.176Z,6.80
2022-12-11T00:49:51.633Z,6.85
2022-12-11T00:52:19.269Z,8.00
2022-12-11T00:54:46.937Z,7.37
2022-12-11T00:57:14.532Z,5.87
2022-12-11T00:59:41.997Z,6.62
2022-12-11T01:02:09.629Z,6.72
2022-12-11T01:04:37.308Z,11.28
2022-12-11T01:07:04.950Z,6.45
2022-12-11T01:09:51.231Z,6.80
2022-12-11T01:12:18.827Z,5.78
2022-12-11T01:14:46.356Z,6.15
2022-12-11T01:17:14.258Z,6.40
2022-12-11T01:19:42.237Z,6.53
2022-12-11T01:22:09.876Z,6.58
2022-12-11T01:24:37.816Z,8.90
2022-12-11T01:27:05.473Z,7.78
2022-12-11T01:29:32.901Z,9.15
2022-12-11T01:32:00.632Z,7.62
2022-12-11T01:34:32.798Z,8.50
2022-12-11T01:37:00.133Z,7.17
2022-12-11T01:39:28.299Z,9.28
2022-12-11T01:41:58.769Z,6.83
2022-12-11T01:44:34.583Z,8.88
2022-12-11T01:47:02.077Z,8.10
2022-12-11T01:49:29.751Z,8.33
2022-12-11T01:52:11.295Z,8.18
2022-12-11T01:54:39.352Z,11.12
2022-12-11T01:57:10.947Z,7.95
2022-12-11T01:59:42.477Z,6.97
2022-12-11T02:02:24.647Z,10.08
2022-12-11T02:04:52.236Z,9.58
2022-12-11T02:07:20.035Z,7.20
2022-12-11T02:09:48.715Z,9.20
2022-12-11T02:12:53.813Z,7.40
2022-12-11T02:15:39.095Z,10.30
2022-12-11T02:18:17.784Z,10.55
2022-12-11T02:21:14.998Z,7.80
2022-12-11T02:24:02.488Z,9.08
2022-12-11T02:26:59.844Z,11.28
2022-12-11T02:29:38.897Z,8.15
2022-12-11T02:32:17.485Z,6.10
2022-12-11T02:34:53.547Z,10.45
2022-12-11T02:37:24.847Z,8.03
2022-12-11T02:39:55.288Z,8.98
2022-12-11T02:42:27.259Z,6.58
2022-12-11T02:44:57.815Z,7.65
2022-12-11T02:47:28.727Z,9.20
2022-12-11T02:49:58.918Z,9.05
2022-12-11T02:52:30.270Z,8.78
2022-12-11T02:55:01.055Z,6.25
2022-12-11T02:57:39.699Z,6.33
2022-12-11T03:00:09.808Z,9.75
2022-12-11T03:02:38.930Z,16.05
2022-12-11T03:05:08.088Z,11.85
2022-12-11T03:07:39.963Z,10.40
2022-12-11T03:10:13.997Z,11.05
2022-12-11T03:12:47.052Z,6.33
2022-12-11T03:18:07.699Z,6.22
2022-12-11T03:20:46.839Z,7.85
2022-12-11T03:23:47.061Z,7.05
2022-12-11T03:26:17.193Z,7.03
2022-12-11T03:28:56.219Z,7.45
2022-12-11T03:31:32.393Z,10.78
2022-12-11T03:34:04.833Z,7.62
2022-12-11T03:36:38.805Z,5.70
2022-12-11T03:39:13.779Z,9.20
2022-12-11T03:41:44.453Z,9.35
2022-12-11T03:44:13.870Z,9.63
2022-12-11T03:46:45.616Z,6.58
2022-12-11T03:49:17.961Z,6.28
2022-12-11T03:51:49.153Z,8.33
2022-12-11T03:54:21.794Z,9.88
2022-12-11T03:56:56.948Z,8.20
2022-12-11T03:59:25.506Z,8.68
2022-12-11T04:01:53.813Z,11.97
2022-12-11T04:04:22.614Z,9.45
2022-12-11T04:06:50.464Z,7.28
2022-12-11T04:09:18.003Z,11.12
2022-12-11T04:11:45.444Z,8.60
2022-12-11T04:14:32.916Z,10.95
2022-12-11T04:17:01.401Z,8.08
2022-12-11T04:19:47.981Z,9.48
2022-12-11T04:22:35.498Z,8.88
2022-12-11T04:25:07.000Z,9.33
2022-12-11T04:27:49.894Z,6.87
2022-12-11T04:30:28.037Z,8.80
2022-12-11T04:32:54.941Z,9.23
2022-12-11T04:35:23.232Z,8.85
2022-12-11T04:37:52.460Z,8.43
2022-12-11T04:40:20.801Z,8.70
2022-12-11T04:42:48.595Z,6.87
2022-12-11T04:45:16.444Z,7.70
2022-12-11T04:47:44.082Z,12.33
2022-12-11T04:50:14.471Z,6.00
2022-12-11T04:52:42.981Z,6.60
2022-12-11T04:55:11.876Z,5.70
2022-12-11T04:57:39.776Z,9.03
2022-12-11T05:00:11.062Z,8.30
2022-12-11T05:02:40.483Z,12.47
2022-12-11T05:05:10.667Z,10.90
2022-12-11T05:07:38.988Z,7.85
2022-12-11T05:10:08.741Z,8.35
2022-12-11T05:12:36.496Z,8.48
2022-12-11T05:15:05.899Z,6.78
2022-12-11T05:17:34.165Z,6.75
2022-12-11T05:20:01.648Z,5.87
2022-12-11T05:22:31.336Z,6.75
2022-12-11T05:24:59.128Z,8.40
2022-12-11T05:27:26.970Z,8.98
2022-12-11T05:29:59.360Z,7.65
2022-12-11T05:32:27.161Z,6.05
2022-12-11T05:34:54.874Z,4.60
2022-12-11T05:37:22.339Z,9.25
2022-12-11T05:39:49.987Z,6.53
2022-12-11T05:42:17.816Z,6.00
2022-12-11T05:44:45.970Z,7.78
2022-12-11T05:47:13.715Z,7.30
2022-12-11T05:49:41.350Z,7.78
2022-12-11T05:52:09.118Z,7.60
2022-12-11T05:54:36.875Z,9.13
2022-12-11T05:57:04.456Z,7.28
2022-12-11T05:59:31.900Z,9.13
2022-12-11T06:01:59.623Z,8.43
2022-12-11T06:04:27.566Z,9.08
2022-12-11T06:06:55.245Z,5.87
2022-12-11T06:09:22.747Z,7.20
2022-12-11T06:11:50.514Z,7.10
2022-12-11T06:14:18.030Z,5.53
2022-12-11T06:16:45.576Z,6.95
2022-12-11T06:19:16.888Z,6.28
2022-12-11T06:21:48.159Z,12.35
2022-12-11T06:24:15.642Z,18.87
2022-12-11T06:26:42.855Z,8.50
2022-12-11T06:29:12.901Z,6.15
2022-12-11T06:31:39.730Z,9.25
2022-12-11T06:34:07.954Z,9.10
2022-12-11T06:36:35.491Z,8.93
2022-12-11T06:39:03.436Z,9.35
2022-12-11T06:41:30.923Z,11.45
2022-12-11T06:43:58.477Z,10.60
2022-12-11T06:46:25.925Z,15.10
2022-12-11T06:48:53.590Z,24.18
2022-12-11T06:51:24.408Z,24.10
2022-12-11T06:53:55.486Z,17.95
2022-12-11T06:56:24.377Z,17.23
2022-12-11T06:58:52.611Z,19.62
2022-12-11T07:01:24.985Z,20.37
2022-12-11T07:03:58.827Z,16.37
2022-12-11T07:06:28.439Z,14.58
2022-12-11T07:08:56.723Z,11.68
2022-12-11T07:11:24.553Z,12.95
2022-12-11T07:13:52.218Z,9.43
2022-12-11T07:16:21.028Z,13.80
2022-12-11T07:18:50.872Z,15.70
2022-12-11T07:21:20.597Z,17.05
2022-12-11T07:23:49.321Z,25.15
2022-12-11T07:26:20.515Z,24.40
2022-12-11T07:28:48.495Z,96.90
2022-12-11T07:31:22.682Z,84.75
2022-12-11T07:33:55.096Z,50.80
2022-12-11T07:36:23.959Z,36.15
2022-12-11T07:38:51.551Z,27.40
2022-12-11T07:41:19.476Z,20.10
2022-12-11T07:43:50.335Z,23.45
2022-12-11T07:46:22.934Z,20.75
2022-12-11T07:48:51.222Z,23.73
2022-12-11T07:51:29.958Z,24.82
2022-12-11T07:54:01.882Z,22.15
2022-12-11T07:56:30.934Z,21.05
2022-12-11T07:59:00.686Z,18.82
2022-12-11T08:01:30.463Z,18.87
2022-12-11T08:03:58.090Z,37.60
2022-12-11T08:06:29.906Z,30.82
2022-12-11T08:08:59.227Z,22.42
2022-12-11T08:11:27.280Z,21.05
2022-12-11T08:13:55.594Z,30.12
2022-12-11T08:16:23.616Z,39.27
2022-12-11T08:18:52.272Z,21.25
2022-12-11T08:21:24.317Z,7.67
2022-12-11T08:23:53.845Z,6.83
2022-12-11T08:26:31.108Z,4.60
2022-12-11T08:29:01.978Z,9.03
2022-12-11T08:31:30.061Z,5.30
2022-12-11T08:33:58.208Z,11.30
2022-12-11T08:36:26.255Z,10.08
2022-12-11T08:38:55.903Z,7.72
2022-12-11T08:41:29.610Z,8.93
2022-12-11T08:43:59.886Z,9.80
2022-12-11T08:46:31.394Z,9.18
2022-12-11T08:48:59.891Z,6.92
2022-12-11T08:51:29.889Z,11.68
2022-12-11T08:54:00.693Z,6.58
2022-12-11T08:56:30.093Z,9.25
2022-12-11T08:59:00.587Z,7.05
2022-12-11T09:01:28.859Z,7.50
2022-12-11T09:03:57.086Z,5.20
2022-12-11T09:06:28.511Z,7.75
2022-12-11T09:08:59.695Z,6.47
2022-12-11T09:11:31.792Z,4.60
2022-12-11T09:14:06.805Z,4.22
2022-12-11T09:16:31.270Z,5.30
2022-12-11T09:19:00.254Z,7.15
2022-12-11T09:21:30.514Z,7.90
2022-12-11T09:24:01.062Z,4.83
2022-12-11T09:26:30.449Z,2.83
2022-12-11T09:28:58.295Z,2.67
2022-12-11T09:31:30.540Z,2.37
2022-12-11T09:34:02.591Z,2.83
2022-12-11T09:36:31.491Z,4.05
2022-12-11T09:39:05.747Z,3.12
2022-12-11T09:41:40.126Z,1.75
2022-12-11T09:44:31.457Z,1.90
2022-12-11T09:47:00.494Z,2.85
2022-12-11T09:49:39.846Z,1.75
2022-12-11T09:52:34.446Z,1.20
2022-12-11T09:55:16.343Z,1.35
2022-12-11T09:58:01.541Z,1.82
2022-12-11T10:00:43.814Z,2.42
2022-12-11T10:03:25.541Z,2.33
2022-12-11T10:06:28.961Z,1.62
2022-12-11T10:09:13.720Z,3.52
2022-12-11T10:12:28.229Z,1.87
2022-12-11T10:15:20.909Z,2.33
2022-12-11T10:17:48.668Z,2.15
2022-12-11T10:20:39.455Z,2.42
2022-12-11T10:23:11.440Z,5.45
2022-12-11T10:25:43.975Z,1.90
2022-12-11T10:28:20.549Z,4.60
2022-12-11T10:31:20.050Z,3.08
2022-12-11T10:34:03.939Z,2.20
2022-12-11T10:36:38.674Z,1.30
2022-12-11T10:39:19.808Z,1.52
2022-12-11T10:41:53.412Z,4.03
2022-12-11T10:44:25.227Z,6.73
2022-12-11T10:47:14.580Z,6.50
2022-12-11T10:49:58.995Z,2.35
2022-12-11T10:52:39.202Z,1.27
2022-12-11T10:55:21.379Z,2.17
2022-12-11T10:58:03.086Z,3.58
2022-12-11T11:00:38.507Z,0.70
2022-12-11T11:03:26.941Z,0.95
2022-12-11T11:06:18.473Z,1.10
2022-12-11T11:08:49.712Z,1.30
2022-12-11T11:11:34.243Z,2.27
2022-12-11T11:14:18.167Z,4.15
2022-12-11T11:16:49.701Z,6.80
2022-12-11T11:19:35.622Z,6.05
2022-12-11T11:22:13.630Z,5.97
2022-12-11T11:24:55.498Z,5.30
2022-12-11T11:27:34.437Z,4.08
2022-12-11T11:30:10.522Z,3.95
2022-12-11T11:32:39.797Z,4.37
2022-12-11T11:35:18.693Z,3.85
2022-12-11T11:37:56.953Z,4.85
2022-12-11T11:40:32.811Z,4.50
2022-12-11T11:43:30.321Z,3.52
2022-12-11T11:46:06.397Z,3.33
2022-12-11T11:48:41.979Z,3.05
2022-12-11T11:51:27.041Z,1.62
2022-12-11T11:53:59.089Z,3.83
2022-12-11T11:56:37.075Z,2.98
2022-12-11T11:59:30.857Z,4.22
2022-12-11T12:01:59.471Z,3.45
2022-12-11T12:04:34.456Z,3.20
2022-12-11T12:07:41.312Z,5.15
2022-12-11T12:10:26.708Z,3.62
2022-12-11T12:13:18.776Z,4.00
2022-12-11T12:15:59.595Z,3.60
2022-12-11T12:18:48.325Z,11.88
2022-12-11T12:21:39.744Z,3.85
2022-12-11T12:24:31.229Z,2.87
2022-12-11T12:27:51.450Z,2.33
2022-12-11T12:30:07.860Z,2.25
2022-12-11T12:32:56.323Z,1.92
2022-12-11T12:35:46.977Z,2.17
2022-12-11T12:38:40.875Z,4.58
2022-12-11T12:41:26.197Z,2.45
2022-12-11T12:44:16.362Z,1.25
2022-12-11T12:46:58.564Z,1.80
2022-12-11T12:49:37.895Z,2.10
2022-12-11T12:52:13.321Z,1.57
2022-12-11T12:54:47.576Z,4.15
2022-12-11T12:57:15.419Z,4.60
2022-12-11T12:59:44.641Z,6.78
2022-12-11T13:02:15.767Z,2.35
2022-12-11T13:04:56.109Z,2.60
2022-12-11T13:07:19.899Z,3.77
2022-12-11T13:10:09.873Z,1.90
2022-12-11T13:12:46.671Z,4.50
2022-12-11T13:15:40.120Z,2.40
2022-12-11T13:18:34.417Z,2.83
2022-12-11T13:21:24.408Z,2.95
2022-12-11T13:23:52.732Z,9.18
2022-12-11T13:26:32.659Z,6.78
2022-12-11T13:29:00.604Z,4.65
2022-12-11T13:31:38.125Z,7.47
2022-12-11T13:34:20.080Z,4.97
2022-12-11T13:36:50.871Z,3.75
2022-12-11T13:39:26.899Z,14.18
2022-12-11T13:42:02.546Z,1.60
2022-12-11T13:44:38.991Z,3.00
2022-12-11T13:47:13.167Z,1.07
2022-12-11T13:49:44.250Z,1.60
2022-12-11T13:52:21.700Z,1.60
2022-12-11T13:54:53.322Z,4.95
2022-12-11T13:57:29.282Z,5.00
2022-12-11T13:59:58.914Z,5.25
2022-12-11T14:02:38.294Z,6.17
2022-12-11T14:05:10.107Z,9.60
2022-12-11T14:07:45.864Z,5.45
2022-12-11T14:10:24.893Z,7.60
2022-12-11T14:13:26.682Z,4.35
2022-12-11T14:15:54.885Z,6.40
2022-12-11T14:18:27.152Z,6.45
2022-12-11T14:21:01.053Z,2.00
2022-12-11T14:23:32.180Z,2.02
2022-12-11T14:26:21.952Z,2.37
2022-12-11T14:28:50.420Z,1.82
2022-12-11T14:31:32.481Z,2.08
2022-12-11T14:34:17.405Z,2.00
2022-12-11T14:36:47.820Z,13.70
2022-12-11T14:39:33.421Z,2.67
2022-12-11T14:42:09.582Z,3.75
2022-12-11T14:44:51.439Z,7.70
2022-12-11T14:47:36.397Z,9.35
2022-12-11T14:50:46.505Z,10.03
2022-12-11T14:53:25.128Z,7.03
2022-12-11T14:55:53.562Z,3.47
2022-12-11T14:58:26.753Z,4.40
2022-12-11T15:01:04.581Z,6.42
2022-12-11T15:03:38.803Z,4.53
2022-12-11T15:06:31.959Z,8.23
2022-12-11T15:09:11.018Z,10.70
2022-12-11T15:11:38.820Z,12.47
2022-12-11T15:14:11.211Z,8.55
2022-12-11T15:16:41.743Z,12.63
2022-12-11T15:19:28.999Z,9.58
2022-12-11T15:22:03.439Z,15.45
2022-12-11T15:24:38.181Z,5.70
2022-12-11T15:27:09.106Z,9.68
2022-12-11T15:29:39.622Z,6.33
2022-12-11T15:32:17.172Z,8.25
2022-12-11T15:34:58.021Z,6.70
2022-12-11T15:37:38.023Z,4.35
2022-12-11T15:40:07.444Z,9.90
2022-12-11T15:42:40.994Z,7.03
2022-12-11T15:45:18.748Z,10.15
2022-12-11T15:47:48.303Z,6.60
2022-12-11T15:50:21.124Z,9.85
2022-12-11T15:52:50.897Z,8.23
2022-12-11T15:55:19.880Z,8.08
2022-12-11T15:57:55.170Z,6.42
2022-12-11T16:00:24.052Z,4.62
2022-12-11T16:02:51.777Z,3.60
2022-12-11T16:05:21.320Z,9.63
2022-12-11T16:07:53.519Z,7.58
2022-12-11T16:10:22.135Z,7.08
2022-12-11T16:12:51.558Z,4.12
2022-12-11T16:15:23.388Z,6.45
2022-12-11T16:17:49.384Z,4.87
2022-12-11T16:20:18.437Z,8.90
2022-12-11T16:22:46.016Z,8.50
2022-12-11T16:25:13.853Z,7.78
2022-12-11T16:27:42.659Z,5.17
2022-12-11T16:30:12.982Z,5.28
2022-12-11T16:32:40.800Z,4.78
2022-12-11T16:35:08.525Z,3.58
2022-12-11T16:37:36.086Z,5.25
2022-12-11T16:40:06.079Z,5.00
2022-12-11T16:42:34.066Z,8.53
2022-12-11T16:45:11.305Z,5.53
2022-12-11T16:47:39.374Z,5.17
2022-12-11T16:50:08.113Z,5.40
2022-12-11T16:52:36.131Z,3.58
2022-12-11T16:55:05.021Z,3.33
2022-12-11T16:57:32.771Z,6.37
2022-12-11T17:00:00.403Z,4.65
2022-12-11T17:02:30.236Z,3.67
2022-12-11T17:04:58.179Z,2.98
2022-12-11T17:07:25.889Z,5.55
2022-12-11T17:09:53.198Z,3.83
2022-12-11T17:12:22.336Z,6.58
2022-12-11T17:14:49.550Z,4.12
2022-12-11T17:17:17.028Z,3.55
2022-12-11T17:19:44.705Z,3.37
2022-12-11T17:22:12.282Z,2.90
2022-12-11T17:24:40.299Z,3.05
2022-12-11T17:27:08.483Z,3.55
2022-12-11T17:29:37.425Z,5.42
2022-12-11T17:32:05.863Z,3.17
2022-12-11T17:34:38.196Z,3.80
2022-12-11T17:37:03.425Z,3.15
2022-12-11T17:39:31.294Z,4.15
2022-12-11T17:41:59.063Z,3.30
2022-12-11T17:44:28.632Z,3.95
2022-12-11T17:46:58.903Z,5.60
2022-12-11T17:49:26.844Z,5.75
2022-12-11T17:51:54.848Z,6.85
2022-12-11T17:54:23.718Z,7.10
2022-12-11T17:56:51.797Z,3.02
2022-12-11T17:59:19.403Z,3.77
2022-12-11T18:01:47.170Z,5.25
2022-12-11T18:04:14.782Z,6.87
2022-12-11T18:06:42.395Z,6.97
2022-12-11T18:09:10.871Z,13.88
2022-12-11T18:11:38.401Z,9.80
2022-12-11T18:14:06.029Z,8.93
2022-12-11T18:16:39.900Z,6.53
2022-12-11T18:19:07.984Z,14.50
2022-12-11T18:21:39.850Z,10.43
2022-12-11T18:24:09.420Z,9.58
2022-12-11T18:26:37.333Z,4.05
2022-12-11T18:29:06.250Z,4.25
2022-12-11T18:31:38.866Z,6.75
2022-12-11T18:34:05.654Z,4.28
2022-12-11T18:36:35.731Z,2.77
2022-12-11T18:39:03.598Z,4.03
2022-12-11T18:41:31.371Z,2.80
2022-12-11T18:44:07.975Z,13.48
2022-12-11T18:46:31.781Z,6.10
2022-12-11T18:48:59.435Z,2.90
2022-12-11T18:51:27.191Z,6.00
2022-12-11T18:53:55.664Z,6.87
2022-12-11T18:56:23.790Z,5.50
2022-12-11T18:58:51.495Z,8.83
2022-12-11T19:01:24.394Z,4.92
2022-12-11T19:04:03.272Z,5.50
2022-12-11T19:06:29.835Z,5.95
2022-12-11T19:08:57.877Z,20.62
2022-12-11T19:11:28.566Z,13.05
2022-12-11T19:13:56.798Z,18.73
2022-12-11T19:16:30.124Z,26.27
2022-12-11T19:18:58.488Z,53.25
2022-12-11T19:21:26.888Z,55.48
2022-12-11T19:23:54.414Z,22.13
2022-12-11T19:26:23.802Z,16.75
2022-12-11T19:28:53.473Z,21.02
2022-12-11T19:31:22.733Z,51.50
2022-12-11T19:33:50.385Z,37.73
2022-12-11T19:36:23.498Z,25.40
2022-12-11T19:38:57.778Z,12.47
2022-12-11T19:41:28.739Z,11.48
2022-12-11T19:43:58.348Z,12.58
2022-12-11T19:46:26.399Z,8.53
2022-12-11T19:48:56.605Z,12.30
2022-12-11T19:51:29.634Z,33.70
2022-12-11T19:54:02.149Z,41.83
2022-12-11T19:56:31.171Z,26.25
2022-12-11T19:59:00.165Z,12.80
2022-12-11T20:01:30.645Z,13.38
2022-12-11T20:04:02.428Z,10.68
2022-12-11T20:06:33.032Z,10.72
2022-12-11T20:09:02.648Z,10.30
2022-12-11T20:11:32.626Z,9.50
2022-12-11T20:14:00.329Z,13.90
2022-12-11T20:16:53.752Z,22.85
2022-12-11T20:18:57.578Z,21.40
2022-12-11T20:21:26.848Z,20.50
2022-12-11T20:23:55.154Z,21.57
2022-12-11T20:26:24.383Z,23.70
2022-12-11T20:28:52.890Z,17.77
2022-12-11T20:31:23.599Z,15.18
2022-12-11T20:33:53.027Z,11.08
2022-12-11T20:36:22.530Z,9.95
2022-12-11T20:38:50.641Z,12.25
2022-12-11T20:41:21.678Z,11.83
2022-12-11T20:43:49.770Z,11.53
2022-12-11T20:46:18.085Z,10.90
2022-12-11T20:48:46.596Z,9.28
2022-12-11T20:51:23.957Z,14.55
2022-12-11T20:53:50.836Z,18.48
2022-12-11T20:56:20.117Z,23.77
2022-12-11T20:58:47.876Z,20.88
2022-12-11T21:01:18.952Z,21.07
2022-12-11T21:03:47.028Z,16.45
2022-12-11T21:06:30.385Z,15.68
2022-12-11T21:09:00.465Z,18.65
2022-12-11T21:11:28.416Z,18.45
2022-12-11T21:13:56.206Z,21.60
2022-12-11T21:16:24.223Z,16.82
2022-12-11T21:18:52.104Z,16.73
2022-12-11T21:21:20.854Z,14.35
2022-12-11T21:23:48.861Z,14.50
2022-12-11T21:26:17.313Z,17.25
2022-12-11T21:28:44.911Z,12.58
2022-12-11T21:31:16.404Z,11.10
2022-12-11T21:33:45.241Z,10.82
2022-12-11T21:36:14.419Z,11.78
2022-12-11T21:38:43.469Z,18.20
2022-12-11T21:41:15.037Z,15.38
2022-12-11T21:44:30.980Z,11.73
2022-12-11T21:46:17.783Z,7.28
2022-12-11T21:48:47.806Z,11.07
2022-12-11T21:51:23.284Z,5.80
2022-12-11T21:53:52.369Z,8.78
2022-12-11T21:56:22.769Z,4.40
2022-12-11T21:58:51.839Z,5.37
2022-12-11T22:01:24.862Z,9.75
2022-12-11T22:03:53.445Z,6.12
2022-12-11T22:06:21.068Z,4.80
2022-12-11T22:08:49.580Z,5.75
2022-12-11T22:11:24.543Z,5.35
2022-12-11T22:13:52.414Z,17.80
2022-12-11T22:16:21.249Z,12.43
2022-12-11T22:18:49.000Z,7.35
2022-12-11T22:21:17.063Z,15.83
2022-12-11T22:23:45.061Z,10.00
2022-12-11T22:26:20.235Z,9.80
2022-12-11T22:28:48.869Z,16.32
2022-12-11T22:31:20.036Z,8.48
2022-12-11T22:33:49.550Z,5.30
2022-12-11T22:36:18.427Z,9.05
2022-12-11T22:38:47.057Z,6.40
2022-12-11T22:41:25.546Z,6.00
2022-12-11T22:43:54.219Z,7.17
2022-12-11T22:46:24.793Z,9.80
2022-12-11T22:48:53.389Z,7.03
2022-12-11T22:51:22.290Z,5.00
2022-12-11T22:53:50.389Z,5.87
2022-12-11T22:56:18.046Z,7.08
2022-12-11T22:58:45.607Z,6.80
2022-12-11T23:01:23.054Z,9.00
2022-12-11T23:03:50.540Z,7.10
2022-12-11T23:06:22.679Z,10.13
2022-12-11T23:08:52.198Z,7.03
2022-12-11T23:11:27.160Z,7.35
2022-12-11T23:13:56.253Z,8.75
2022-12-11T23:16:26.515Z,7.87
2022-12-11T23:18:55.820Z,6.42
2022-12-11T23:21:25.978Z,5.37
2022-12-11T23:23:55.085Z,4.97
2022-12-11T23:26:23.918Z,6.72
2022-12-11T23:28:51.408Z,6.75
2022-12-11T23:31:19.196Z,4.90
2022-12-11T23:33:47.114Z,4.42
2022-12-11T23:36:15.010Z,7.65
2022-12-11T23:38:42.762Z,7.97
2022-12-11T23:41:13.791Z,10.80
2022-12-11T23:43:42.272Z,21.52
2022-12-11T23:46:17.431Z,8.45
2022-12-11T23:48:45.402Z,7.03
2022-12-11T23:51:16.522Z,21.27
2022-12-11T23:53:45.195Z,8.28
2022-12-11T23:56:17.442Z,6.70
2022-12-11T23:58:46.324Z,5.90
